Time;durP1;ratioP1;P1;durP2;ratioP2;P2;SDS_P1;SDS_P2;PMS_P1;PMS_P2;Temp;Humidity;BMP_temperature;BMP_pressure;BME280_temperature;BME280_humidity;BME280_pressure;Samples;Min_cycle;Max_cycle;Signal;HPM_P1;HPM_P2
2022/04/30 00:00:58;;;;;;;9.30;8.40;;;;;;;;;;5073137;28;20887;-62
2022/04/30 00:03:28;;;;;;;8.50;7.70;;;;;;;;;;5073153;28;20769;-65
2022/04/30 00:05:54;;;;;;;9.97;9.00;;;;;;;;;;5072933;28;20476;-62
2022/04/30 00:08:20;;;;;;;9.70;8.70;;;;;;;;;;5073011;28;20436;-64
2022/04/30 00:10:46;;;;;;;9.33;8.33;;;;;;;;;;5072960;28;20481;-64
2022/04/30 00:13:12;;;;;;;10.80;9.63;;;;;;;;;;5073039;28;20941;-61
2022/04/30 00:15:38;;;;;;;11.40;8.97;;;;;;;;;;5072940;28;20946;-62
2022/04/30 00:18:04;;;;;;;8.30;7.60;;;;;;;;;;5072782;28;20417;-62
2022/04/30 00:20:32;;;;;;;9.77;7.93;;;;;;;;;;5073043;28;20448;-63
2022/04/30 00:22:58;;;;;;;9.60;8.70;;;;;;;;;;5072990;28;20887;-65
2022/04/30 00:25:24;;;;;;;8.90;8.00;;;;;;;;;;5073038;28;20400;-62
2022/04/30 00:27:51;;;;;;;10.37;9.27;;;;;;;;;;5072731;28;20860;-62
2022/04/30 00:30:17;;;;;;;9.27;8.27;;;;;;;;;;5072868;28;20400;-62
2022/04/30 00:32:43;;;;;;;9.17;8.30;;;;;;;;;;5072924;28;20404;-65
2022/04/30 00:35:10;;;;;;;10.60;9.50;;;;;;;;;;5072673;28;20776;-62
2022/04/30 00:37:36;;;;;;;12.10;10.17;;;;;;;;;;5072719;28;20428;-61
2022/04/30 00:40:02;;;;;;;12.50;9.00;;;;;;;;;;5072710;28;20485;-62
2022/04/30 00:42:28;;;;;;;11.43;10.03;;;;;;;;;;5072739;28;20462;-63
2022/04/30 00:44:54;;;;;;;11.17;9.30;;;;;;;;;;5072746;28;20440;-61
2022/04/30 00:47:20;;;;;;;10.77;9.67;;;;;;;;;;5072541;28;20476;-61
2022/04/30 00:49:47;;;;;;;12.13;10.10;;;;;;;;;;5075874;28;20397;-61
2022/04/30 00:52:16;;;;;;;11.20;9.37;;;;;;;;;;5076439;28;20404;-62
2022/04/30 00:54:46;;;;;;;11.43;9.73;;;;;;;;;;5076353;28;20407;-61
2022/04/30 00:57:13;;;;;;;11.10;9.90;;;;;;;;;;5076401;28;20884;-62
2022/04/30 00:59:40;;;;;;;12.50;11.13;;;;;;;;;;5076376;28;20462;-62
2022/04/30 01:02:10;;;;;;;16.60;10.40;;;;;;;;;;5076255;28;20405;-62
2022/04/30 01:04:36;;;;;;;15.03;10.60;;;;;;;;;;5076291;28;20509;-63
2022/04/30 01:07:09;;;;;;;14.80;11.00;;;;;;;;;;5075964;28;20571;-64
2022/04/30 01:09:39;;;;;;;13.27;10.03;;;;;;;;;;5076286;28;20462;-63
2022/04/30 01:12:10;;;;;;;16.00;13.47;;;;;;;;;;5075982;28;20754;-61
2022/04/30 01:14:37;;;;;;;19.60;13.07;;;;;;;;;;5076052;28;20455;-64
2022/04/30 01:17:05;;;;;;;27.50;13.43;;;;;;;;;;5075932;28;20442;-62
2022/04/30 01:19:33;;;;;;;21.87;14.13;;;;;;;;;;5076122;28;20823;-62
2022/04/30 01:22:01;;;;;;;28.80;14.00;;;;;;;;;;5076036;28;20408;-62
2022/04/30 01:24:28;;;;;;;19.33;13.17;;;;;;;;;;5075984;28;20408;-62
2022/04/30 01:27:00;;;;;;;28.00;15.57;;;;;;;;;;5075809;28;20456;-62
2022/04/30 01:29:27;;;;;;;20.93;14.60;;;;;;;;;;5076011;28;20389;-62
2022/04/30 01:37:28;;;;;;;29.60;15.30;;;;;;;;;;5075935;28;20432;-63
2022/04/30 01:39:57;;;;;;;26.30;15.87;;;;;;;;;;5075774;28;20946;-62
2022/04/30 01:42:24;;;;;;;28.13;15.13;;;;;;;;;;5075590;28;20405;-63
2022/04/30 01:44:50;;;;;;;23.77;16.60;;;;;;;;;;5075741;28;20914;-62
2022/04/30 01:47:16;;;;;;;28.00;17.50;;;;;;;;;;5075406;28;20493;-62
2022/04/30 01:49:42;;;;;;;23.93;15.97;;;;;;;;;;5075573;28;20397;-61
2022/04/30 01:52:09;;;;;;;26.60;15.80;;;;;;;;;;5075490;28;20446;-61
2022/04/30 01:54:35;;;;;;;24.50;16.20;;;;;;;;;;5075263;28;20405;-62
2022/04/30 01:57:01;;;;;;;24.60;16.40;;;;;;;;;;5075203;28;20419;-61
2022/04/30 01:59:28;;;;;;;27.57;16.07;;;;;;;;;;5075075;28;20400;-61
2022/04/30 02:01:55;;;;;;;28.80;16.13;;;;;;;;;;5075360;28;20397;-61
2022/04/30 02:04:22;;;;;;;26.57;15.90;;;;;;;;;;5075260;28;20407;-62
2022/04/30 02:06:48;;;;;;;31.53;17.20;;;;;;;;;;5074690;28;20476;-64
2022/04/30 02:09:15;;;;;;;25.00;16.07;;;;;;;;;;5075300;28;20405;-62
2022/04/30 02:11:42;;;;;;;27.07;15.63;;;;;;;;;;5075149;28;20515;-62
2022/04/30 02:14:11;;;;;;;27.87;17.07;;;;;;;;;;5075079;28;20935;-62
2022/04/30 02:16:38;;;;;;;27.30;15.63;;;;;;;;;;5074850;28;20440;-62
2022/04/30 02:19:06;;;;;;;27.77;17.00;;;;;;;;;;5074898;28;20466;-64
2022/04/30 02:21:33;;;;;;;29.00;16.43;;;;;;;;;;5074973;28;20763;-63
2022/04/30 02:23:59;;;;;;;25.20;15.80;;;;;;;;;;5074957;28;20424;-62
2022/04/30 02:26:29;;;;;;;25.90;16.50;;;;;;;;;;5074788;28;20575;-64
2022/04/30 02:28:58;;;;;;;24.17;15.60;;;;;;;;;;5074719;28;20400;-62
2022/04/30 02:31:25;;;;;;;22.47;14.87;;;;;;;;;;5074709;28;20421;-62
2022/04/30 02:33:56;;;;;;;25.27;15.43;;;;;;;;;;5074513;28;20759;-61
2022/04/30 02:36:26;;;;;;;23.30;15.27;;;;;;;;;;5074542;28;20421;-62
2022/04/30 02:38:55;;;;;;;26.90;15.67;;;;;;;;;;5074562;28;20415;-62
2022/04/30 02:41:21;;;;;;;23.57;15.30;;;;;;;;;;5056516;28;20423;-62
2022/04/30 02:43:51;;;;;;;25.10;15.03;;;;;;;;;;5074448;28;20896;-62
2022/04/30 02:46:17;;;;;;;21.70;14.93;;;;;;;;;;5074246;28;20597;-65
2022/04/30 02:48:44;;;;;;;21.50;15.20;;;;;;;;;;5074275;28;20417;-62
2022/04/30 02:51:10;;;;;;;29.17;15.40;;;;;;;;;;5074220;28;20404;-65
2022/04/30 02:53:39;;;;;;;21.10;14.97;;;;;;;;;;5074130;28;20405;-61
2022/04/30 02:56:06;;;;;;;23.90;15.27;;;;;;;;;;5074276;28;20405;-61
2022/04/30 03:01:19;;;;;;;24.73;14.80;;;;;;;;;;5074399;28;20446;-62
2022/04/30 03:03:45;;;;;;;25.80;17.07;;;;;;;;;;5074112;28;20420;-63
2022/04/30 03:06:13;;;;;;;34.07;16.77;;;;;;;;;;5073615;28;20817;-61
2022/04/30 03:08:39;;;;;;;22.03;15.60;;;;;;;;;;5073934;28;20884;-61
2022/04/30 03:11:07;;;;;;;24.90;14.90;;;;;;;;;;5073341;28;20408;-62
2022/04/30 03:13:35;;;;;;;27.47;15.50;;;;;;;;;;5073776;28;20421;-62
2022/04/30 03:21:41;;;;;;;29.57;17.53;;;;;;;;;;5073818;28;20413;-62
2022/04/30 03:21:42;;;;;;;26.97;17.23;;;;;;;;;;5073960;28;20450;-64
2022/04/30 03:24:08;;;;;;;34.93;17.90;;;;;;;;;;5073810;28;20411;-62
2022/04/30 03:26:34;;;;;;;26.70;18.10;;;;;;;;;;5073538;28;20468;-64
2022/04/30 03:29:00;;;;;;;28.73;17.43;;;;;;;;;;5073585;28;20469;-62
2022/04/30 03:31:28;;;;;;;26.70;17.27;;;;;;;;;;5073630;28;20413;-62
2022/04/30 03:33:54;;;;;;;30.23;18.57;;;;;;;;;;5073445;28;20424;-63
2022/04/30 03:36:20;;;;;;;32.40;17.80;;;;;;;;;;5073360;28;20873;-62
2022/04/30 03:38:47;;;;;;;31.90;19.07;;;;;;;;;;5073520;28;20420;-63
2022/04/30 03:41:15;;;;;;;34.87;19.27;;;;;;;;;;5073470;28;20409;-62
2022/04/30 03:43:41;;;;;;;31.57;18.57;;;;;;;;;;5073458;28;20397;-62
2022/04/30 03:46:07;;;;;;;33.67;18.27;;;;;;;;;;5073239;28;20605;-65
2022/04/30 03:48:33;;;;;;;31.20;18.30;;;;;;;;;;5073248;28;20421;-63
2022/04/30 03:50:59;;;;;;;37.17;20.80;;;;;;;;;;5073346;28;20919;-63
2022/04/30 03:53:25;;;;;;;38.03;20.73;;;;;;;;;;5073241;28;20442;-66
2022/04/30 03:55:52;;;;;;;37.53;20.57;;;;;;;;;;5073261;28;20401;-62
2022/04/30 03:58:18;;;;;;;44.00;22.00;;;;;;;;;;5073379;28;20405;-62
2022/04/30 04:00:46;;;;;;;36.40;21.90;;;;;;;;;;5073191;28;20404;-66
2022/04/30 04:03:13;;;;;;;39.90;22.73;;;;;;;;;;5073321;28;20400;-65
2022/04/30 04:05:39;;;;;;;37.97;23.00;;;;;;;;;;5072836;28;21320;-64
2022/04/30 04:08:11;;;;;;;40.20;20.60;;;;;;;;;;5073002;28;20428;-61
2022/04/30 04:10:37;;;;;;;35.33;22.37;;;;;;;;;;5073162;28;20412;-63
2022/04/30 04:18:33;;;;;;;38.57;22.80;;;;;;;;;;5073474;28;20746;-63
2022/04/30 04:20:59;;;;;;;38.87;23.30;;;;;;;;;;5072951;28;20396;-64
2022/04/30 04:23:25;;;;;;;37.03;22.10;;;;;;;;;;5075797;28;20495;-62
2022/04/30 04:26:00;;;;;;;39.80;23.30;;;;;;;;;;5077175;28;20392;-62
2022/04/30 04:28:29;;;;;;;34.53;21.00;;;;;;;;;;5060677;28;20400;-65
2022/04/30 04:30:58;;;;;;;37.23;22.60;;;;;;;;;;5077064;28;20931;-62
2022/04/30 04:33:25;;;;;;;40.10;22.80;;;;;;;;;;5076911;28;20403;-62
2022/04/30 04:35:50;;;;;;;39.10;24.33;;;;;;;;;;5077041;28;20412;-64
2022/04/30 04:38:16;;;;;;;36.53;22.30;;;;;;;;;;5076700;28;20489;-63
2022/04/30 04:40:42;;;;;;;38.47;23.67;;;;;;;;;;5076806;28;20755;-65
2022/04/30 04:43:08;;;;;;;38.93;21.17;;;;;;;;;;5076719;28;20427;-61
2022/04/30 04:45:34;;;;;;;42.93;23.63;;;;;;;;;;5076688;28;20989;-61
2022/04/30 04:48:00;;;;;;;38.60;23.07;;;;;;;;;;5076517;28;20554;-62
2022/04/30 04:50:27;;;;;;;37.27;21.87;;;;;;;;;;5076649;28;20435;-64
2022/04/30 04:52:54;;;;;;;44.20;23.97;;;;;;;;;;5076500;28;20423;-62
2022/04/30 04:55:20;;;;;;;35.50;22.10;;;;;;;;;;5076387;28;20421;-61
2022/04/30 04:57:46;;;;;;;36.73;23.37;;;;;;;;;;5076319;28;20443;-61
2022/04/30 05:00:12;;;;;;;36.77;22.77;;;;;;;;;;5076403;28;20404;-66
2022/04/30 05:02:38;;;;;;;45.47;23.30;;;;;;;;;;5076362;28;20498;-63
2022/04/30 05:05:04;;;;;;;40.70;23.00;;;;;;;;;;5076260;28;20500;-67
2022/04/30 05:07:30;;;;;;;35.00;23.40;;;;;;;;;;5076204;28;20832;-62
2022/04/30 05:09:56;;;;;;;36.00;24.17;;;;;;;;;;5076189;28;20412;-65
2022/04/30 05:12:22;;;;;;;34.23;21.77;;;;;;;;;;5076239;28;20410;-62
2022/04/30 05:14:52;;;;;;;38.80;23.67;;;;;;;;;;5076072;28;20404;-62
2022/04/30 05:17:18;;;;;;;39.07;23.43;;;;;;;;;;5076118;28;20477;-62
2022/04/30 05:19:44;;;;;;;35.77;21.90;;;;;;;;;;5076048;28;20882;-65
2022/04/30 05:22:11;;;;;;;35.93;22.20;;;;;;;;;;5075971;28;20496;-62
2022/04/30 05:24:37;;;;;;;39.90;22.70;;;;;;;;;;5076022;28;20896;-62
2022/04/30 05:27:03;;;;;;;36.90;22.50;;;;;;;;;;5075740;28;20456;-64
2022/04/30 05:29:29;;;;;;;32.73;21.17;;;;;;;;;;5075957;28;20412;-74
2022/04/30 05:31:55;;;;;;;41.43;21.60;;;;;;;;;;5057899;28;20443;-66
2022/04/30 05:34:21;;;;;;;28.97;20.37;;;;;;;;;;5074981;28;20420;-65
2022/04/30 05:36:47;;;;;;;37.90;22.10;;;;;;;;;;5075734;28;20433;-66
2022/04/30 05:39:13;;;;;;;32.40;20.97;;;;;;;;;;5075599;28;20427;-67
2022/04/30 05:41:39;;;;;;;31.37;20.50;;;;;;;;;;5075667;28;20421;-67
2022/04/30 05:44:05;;;;;;;41.20;23.27;;;;;;;;;;5075652;28;20437;-66
2022/04/30 05:46:31;;;;;;;30.00;19.80;;;;;;;;;;5075405;28;20467;-66
2022/04/30 05:48:57;;;;;;;31.40;20.17;;;;;;;;;;5075518;28;20926;-64
2022/04/30 05:51:23;;;;;;;33.67;21.27;;;;;;;;;;5075490;28;20397;-64
2022/04/30 05:53:49;;;;;;;30.30;21.07;;;;;;;;;;5075502;28;20404;-65
2022/04/30 05:56:15;;;;;;;33.00;20.83;;;;;;;;;;5057612;28;20409;-67
2022/04/30 05:58:41;;;;;;;29.53;19.00;;;;;;;;;;5075200;28;20762;-66
2022/04/30 06:01:08;;;;;;;31.13;19.80;;;;;;;;;;5075263;28;20413;-69
2022/04/30 06:03:34;;;;;;;31.37;18.53;;;;;;;;;;5075328;28;20438;-66
2022/04/30 06:06:01;;;;;;;36.07;22.27;;;;;;;;;;5074826;28;20531;-66
2022/04/30 06:08:27;;;;;;;35.30;21.60;;;;;;;;;;5075177;28;20416;-65
2022/04/30 06:10:53;;;;;;;29.57;19.37;;;;;;;;;;5057204;28;20404;-69
2022/04/30 06:13:19;;;;;;;32.67;20.87;;;;;;;;;;5075043;28;20812;-68
2022/04/30 06:15:45;;;;;;;30.70;19.83;;;;;;;;;;5075049;28;20492;-66
2022/04/30 06:18:11;;;;;;;34.07;21.03;;;;;;;;;;5074974;28;20431;-65
2022/04/30 06:20:37;;;;;;;29.33;19.97;;;;;;;;;;5074963;28;20963;-65
2022/04/30 06:23:03;;;;;;;31.20;21.53;;;;;;;;;;5074882;28;20442;-66
2022/04/30 06:25:29;;;;;;;29.80;19.50;;;;;;;;;;5074818;28;20833;-66
2022/04/30 06:27:55;;;;;;;29.70;19.67;;;;;;;;;;5074596;28;20975;-66
2022/04/30 06:30:21;;;;;;;32.03;20.23;;;;;;;;;;5074723;28;20397;-65
2022/04/30 06:32:47;;;;;;;35.23;20.97;;;;;;;;;;5074527;28;20778;-67
2022/04/30 06:35:13;;;;;;;30.30;19.17;;;;;;;;;;5074573;28;20428;-67
2022/04/30 06:37:39;;;;;;;29.97;19.73;;;;;;;;;;5074657;28;20448;-66
2022/04/30 06:40:05;;;;;;;31.63;20.27;;;;;;;;;;5074589;28;20459;-69
2022/04/30 06:42:40;;;;;;;29.63;19.27;;;;;;;;;;5074515;28;20417;-68
2022/04/30 06:45:06;;;;;;;33.27;19.77;;;;;;;;;;5074196;28;20427;-67
2022/04/30 06:47:32;;;;;;;27.47;18.07;;;;;;;;;;5073508;28;20480;-68
2022/04/30 06:49:58;;;;;;;26.17;17.40;;;;;;;;;;5074355;28;20397;-66
2022/04/30 06:52:24;;;;;;;27.80;18.20;;;;;;;;;;5074420;28;20428;-69
2022/04/30 06:57:35;;;;;;;27.27;16.90;;;;;;;;;;5074243;28;20391;-67
2022/04/30 07:01:22;;;;;;;24.63;17.30;;;;;;;;;;5074223;28;20397;-70
2022/04/30 07:02:47;;;;;;;30.07;19.20;;;;;;;;;;5074065;28;20409;-68
2022/04/30 07:05:13;;;;;;;28.47;19.07;;;;;;;;;;5073958;28;20531;-64
2022/04/30 07:07:39;;;;;;;26.53;17.27;;;;;;;;;;5073986;28;20478;-64
2022/04/30 07:10:05;;;;;;;27.63;18.23;;;;;;;;;;5073910;28;20483;-68
2022/04/30 07:12:31;;;;;;;27.63;18.40;;;;;;;;;;5073727;28;20403;-66
2022/04/30 07:14:57;;;;;;;23.93;16.70;;;;;;;;;;5073761;28;20500;-65
2022/04/30 07:17:23;;;;;;;28.27;19.23;;;;;;;;;;5073838;28;20431;-68
2022/04/30 07:19:49;;;;;;;25.60;17.73;;;;;;;;;;5073834;28;20446;-67
2022/04/30 07:22:15;;;;;;;29.80;17.03;;;;;;;;;;5073716;28;20395;-67
2022/04/30 07:24:41;;;;;;;27.80;18.53;;;;;;;;;;5073696;28;20393;-67
2022/04/30 07:27:08;;;;;;;27.77;18.10;;;;;;;;;;5073371;28;20495;-68
2022/04/30 07:29:35;;;;;;;26.33;18.60;;;;;;;;;;5073520;28;20397;-68
2022/04/30 07:32:01;;;;;;;31.27;18.53;;;;;;;;;;5073582;28;20762;-67
2022/04/30 07:34:27;;;;;;;25.97;17.43;;;;;;;;;;5073292;28;20555;-68
2022/04/30 07:36:54;;;;;;;28.40;18.57;;;;;;;;;;5073417;28;20427;-68
2022/04/30 07:39:20;;;;;;;25.67;17.43;;;;;;;;;;5073311;28;20402;-66
2022/04/30 07:41:46;;;;;;;27.47;18.37;;;;;;;;;;5055470;28;20766;-68
2022/04/30 07:44:12;;;;;;;28.43;17.80;;;;;;;;;;5073265;28;20411;-68
2022/04/30 07:46:38;;;;;;;26.30;17.20;;;;;;;;;;5073237;28;20962;-67
2022/04/30 07:49:04;;;;;;;28.77;18.27;;;;;;;;;;5073246;28;20454;-64
2022/04/30 07:51:42;;;;;;;26.00;18.10;;;;;;;;;;5073294;28;20404;-66
2022/04/30 07:54:09;;;;;;;25.60;17.57;;;;;;;;;;5073298;28;20897;-70
2022/04/30 07:56:35;;;;;;;36.40;18.90;;;;;;;;;;5073055;28;20478;-69
2022/04/30 07:59:01;;;;;;;24.07;16.43;;;;;;;;;;5072961;28;20416;-65
2022/04/30 08:01:27;;;;;;;28.93;17.40;;;;;;;;;;5073248;28;20492;-67
2022/04/30 08:03:53;;;;;;;24.20;16.93;;;;;;;;;;5073000;28;20963;-68
2022/04/30 08:06:19;;;;;;;29.57;18.97;;;;;;;;;;5072596;28;20530;-68
2022/04/30 08:08:46;;;;;;;24.00;17.00;;;;;;;;;;5072862;28;20494;-66
2022/04/30 08:11:13;;;;;;;23.90;17.97;;;;;;;;;;5073055;28;20412;-68
2022/04/30 08:13:39;;;;;;;27.80;16.90;;;;;;;;;;5072908;28;20903;-64
2022/04/30 08:16:09;;;;;;;25.63;16.40;;;;;;;;;;5072975;28;20432;-68
2022/04/30 08:18:35;;;;;;;30.07;19.30;;;;;;;;;;5073022;28;20875;-67
2022/04/30 08:21:01;;;;;;;21.07;15.97;;;;;;;;;;5054915;28;20499;-65
2022/04/30 08:23:27;;;;;;;26.00;16.47;;;;;;;;;;5072990;28;20409;-68
2022/04/30 08:25:53;;;;;;;25.47;16.33;;;;;;;;;;5072730;28;20887;-67
2022/04/30 08:28:19;;;;;;;24.20;16.93;;;;;;;;;;5072696;28;20480;-69
2022/04/30 08:30:45;;;;;;;24.53;15.50;;;;;;;;;;5072850;28;20432;-67
2022/04/30 08:33:11;;;;;;;24.37;17.60;;;;;;;;;;5072717;28;20404;-68
2022/04/30 08:35:37;;;;;;;23.70;16.80;;;;;;;;;;5072796;28;20450;-70
2022/04/30 08:38:03;;;;;;;23.13;15.87;;;;;;;;;;5072717;28;20432;-68
2022/04/30 08:40:29;;;;;;;27.37;17.67;;;;;;;;;;5072692;28;20401;-70
2022/04/30 08:42:55;;;;;;;24.37;15.60;;;;;;;;;;5072761;28;20408;-69
2022/04/30 08:45:22;;;;;;;28.60;15.30;;;;;;;;;;5072659;28;20873;-70
2022/04/30 08:47:50;;;;;;;21.37;15.50;;;;;;;;;;5072590;28;20548;-69
2022/04/30 08:50:16;;;;;;;25.10;15.90;;;;;;;;;;5072630;28;20415;-69
2022/04/30 08:52:42;;;;;;;24.80;15.50;;;;;;;;;;5072582;28;20413;-69
2022/04/30 08:55:09;;;;;;;24.00;16.20;;;;;;;;;;5072669;28;20397;-69
2022/04/30 08:57:35;;;;;;;22.57;16.20;;;;;;;;;;5072540;28;20412;-70
2022/04/30 09:00:01;;;;;;;20.13;14.60;;;;;;;;;;5054549;28;20405;-68
2022/04/30 09:02:27;;;;;;;21.90;15.53;;;;;;;;;;5072502;28;20424;-69
2022/04/30 09:04:54;;;;;;;20.90;15.27;;;;;;;;;;5072504;28;20416;-67
2022/04/30 09:07:23;;;;;;;22.03;14.80;;;;;;;;;;5072044;28;20563;-70
2022/04/30 09:09:54;;;;;;;20.40;15.07;;;;;;;;;;5073935;28;20416;-68
2022/04/30 09:12:20;;;;;;;19.60;15.07;;;;;;;;;;5058329;28;20416;-67
2022/04/30 09:14:47;;;;;;;26.40;16.30;;;;;;;;;;5076130;28;20403;-65
2022/04/30 09:17:14;;;;;;;18.70;13.20;;;;;;;;;;5076112;28;20792;-66
2022/04/30 09:19:51;;;;;;;22.03;16.07;;;;;;;;;;5076077;28;20393;-68
2022/04/30 09:22:17;;;;;;;22.00;14.30;;;;;;;;;;5076098;28;20431;-68
2022/04/30 09:24:48;;;;;;;20.07;15.00;;;;;;;;;;5075916;28;20760;-66
2022/04/30 09:27:15;;;;;;;19.17;13.20;;;;;;;;;;5075938;28;20460;-67
2022/04/30 09:29:41;;;;;;;18.10;13.77;;;;;;;;;;5057998;28;20773;-67
2022/04/30 09:32:07;;;;;;;17.13;13.77;;;;;;;;;;5075798;28;20405;-68
2022/04/30 09:37:43;;;;;;;21.93;14.30;;;;;;;;;;5075680;28;20416;-70
2022/04/30 09:40:15;;;;;;;16.03;12.90;;;;;;;;;;5075663;28;20405;-65
2022/04/30 09:42:42;;;;;;;17.43;12.50;;;;;;;;;;5075645;28;20753;-65
2022/04/30 09:45:09;;;;;;;16.97;12.63;;;;;;;;;;5075587;28;20763;-65
2022/04/30 09:47:35;;;;;;;15.97;11.97;;;;;;;;;;5075365;28;20464;-65
2022/04/30 09:55:34;;;;;;;15.33;10.80;;;;;;;;;;5075715;28;20400;-65
2022/04/30 09:58:04;;;;;;;14.57;11.87;;;;;;;;;;5075302;28;20553;-66
2022/04/30 10:00:32;;;;;;;15.10;11.13;;;;;;;;;;5075340;28;20405;-65
2022/04/30 10:03:01;;;;;;;14.27;10.63;;;;;;;;;;5075262;28;20502;-65
2022/04/30 10:05:28;;;;;;;13.93;11.37;;;;;;;;;;5061910;28;20932;-67
2022/04/30 10:07:54;;;;;;;13.67;10.50;;;;;;;;;;5095315;28;20831;-65
2022/04/30 10:10:23;;;;;;;11.77;9.73;;;;;;;;;;5095340;28;20895;-65
2022/04/30 10:12:54;;;;;;;14.40;10.00;;;;;;;;;;5095243;28;20408;-66
2022/04/30 10:15:37;;;;;;;15.03;10.60;;;;;;;;;;5095385;28;20416;-67
2022/04/30 10:18:07;;;;;;;14.57;10.70;;;;;;;;;;5095280;28;20410;-66
2022/04/30 10:20:37;;;;;;;12.60;9.90;;;;;;;;;;5095099;28;20400;-67
2022/04/30 10:23:04;;;;;;;16.53;10.80;;;;;;;;;;5095183;28;20384;-68
2022/04/30 10:25:34;;;;;;;12.27;9.77;;;;;;;;;;5095077;28;20400;-66
2022/04/30 10:28:04;;;;;;;16.20;11.80;;;;;;;;;;5094953;28;21011;-67
2022/04/30 10:30:30;;;;;;;13.77;10.60;;;;;;;;;;5095022;28;20407;-69
2022/04/30 10:33:03;;;;;;;15.90;11.60;;;;;;;;;;5094813;28;20415;-67
2022/04/30 10:35:30;;;;;;;13.73;10.83;;;;;;;;;;5095000;28;20392;-66
2022/04/30 10:38:06;;;;;;;15.33;11.70;;;;;;;;;;5094714;28;20482;-66
2022/04/30 10:40:49;;;;;;;11.77;10.10;;;;;;;;;;5094954;28;20855;-68
2022/04/30 10:43:19;;;;;;;12.97;10.77;;;;;;;;;;5094643;28;20430;-69
2022/04/30 10:45:45;;;;;;;12.73;10.10;;;;;;;;;;5094557;28;20411;-67
2022/04/30 10:48:11;;;;;;;10.53;9.20;;;;;;;;;;5094563;28;20467;-68
2022/04/30 10:50:37;;;;;;;11.43;8.80;;;;;;;;;;5094498;28;20436;-68
2022/04/30 10:53:03;;;;;;;10.27;8.27;;;;;;;;;;5093293;28;20423;-68
2022/04/30 10:55:30;;;;;;;9.47;8.57;;;;;;;;;;5094498;28;20411;-69
2022/04/30 10:57:56;;;;;;;9.37;7.90;;;;;;;;;;5093134;28;20898;-67
2022/04/30 11:00:22;;;;;;;9.83;8.30;;;;;;;;;;5094429;28;20415;-70
2022/04/30 11:02:49;;;;;;;10.17;8.50;;;;;;;;;;5094462;28;20991;-68
2022/04/30 11:05:18;;;;;;;9.27;7.83;;;;;;;;;;5090507;28;20407;-68
2022/04/30 11:07:45;;;;;;;8.77;6.83;;;;;;;;;;5073812;28;20522;-69
2022/04/30 11:10:11;;;;;;;6.80;6.10;;;;;;;;;;5073971;28;20401;-69
2022/04/30 11:12:37;;;;;;;6.93;5.77;;;;;;;;;;5073791;28;20412;-69
2022/04/30 11:15:03;;;;;;;7.00;6.30;;;;;;;;;;5073873;28;20404;-69
2022/04/30 11:17:29;;;;;;;8.03;6.47;;;;;;;;;;5073759;28;20389;-69
2022/04/30 11:19:55;;;;;;;6.87;6.20;;;;;;;;;;5073792;28;20397;-68
2022/04/30 11:22:22;;;;;;;6.90;5.40;;;;;;;;;;5073757;28;20915;-69
2022/04/30 11:24:49;;;;;;;5.33;4.93;;;;;;;;;;5073676;28;20401;-66
2022/04/30 11:27:15;;;;;;;6.93;6.23;;;;;;;;;;5055597;28;21000;-69
2022/04/30 11:29:51;;;;;;;6.67;6.07;;;;;;;;;;5073564;28;20397;-69
2022/04/30 11:32:21;;;;;;;6.20;5.60;;;;;;;;;;5073030;28;20403;-70
2022/04/30 11:34:47;;;;;;;6.30;5.63;;;;;;;;;;5073395;28;20477;-69
2022/04/30 11:37:13;;;;;;;8.10;6.30;;;;;;;;;;5073338;28;20428;-69
2022/04/30 11:39:39;;;;;;;6.70;5.20;;;;;;;;;;5073529;28;20412;-69
2022/04/30 11:42:06;;;;;;;6.20;5.60;;;;;;;;;;5073414;28;20397;-67
2022/04/30 11:44:32;;;;;;;6.87;6.17;;;;;;;;;;5073338;28;20504;-68
2022/04/30 11:46:58;;;;;;;6.80;6.10;;;;;;;;;;5073029;28;20987;-65
2022/04/30 11:49:25;;;;;;;6.40;5.80;;;;;;;;;;5073244;28;20463;-67
2022/04/30 11:51:52;;;;;;;7.00;6.30;;;;;;;;;;5073276;28;20416;-69
2022/04/30 11:54:19;;;;;;;8.83;6.90;;;;;;;;;;5073125;28;20902;-68
2022/04/30 11:56:46;;;;;;;7.17;6.47;;;;;;;;;;5073177;28;20907;-69
2022/04/30 11:59:12;;;;;;;6.80;6.20;;;;;;;;;;5073224;28;20904;-69
2022/04/30 12:01:39;;;;;;;6.83;6.13;;;;;;;;;;5073196;28;20454;-70
2022/04/30 12:04:08;;;;;;;6.30;5.70;;;;;;;;;;5073220;28;20409;-67
2022/04/30 12:06:36;;;;;;;7.63;6.40;;;;;;;;;;5077941;28;20531;-67
2022/04/30 12:09:12;;;;;;;6.50;5.80;;;;;;;;;;5093335;28;20450;-67
2022/04/30 12:11:51;;;;;;;6.07;5.53;;;;;;;;;;5093313;28;20423;-68
2022/04/30 12:14:17;;;;;;;6.37;5.77;;;;;;;;;;5091880;28;20407;-68
2022/04/30 12:16:44;;;;;;;6.20;5.60;;;;;;;;;;5093013;28;20416;-69
2022/04/30 12:25:10;;;;;;;6.67;5.97;;;;;;;;;;5093099;28;20394;-70
2022/04/30 12:27:37;;;;;;;6.77;6.07;;;;;;;;;;5093097;28;20458;-66
2022/04/30 12:30:12;;;;;;;6.40;5.60;;;;;;;;;;5093022;28;20400;-71
2022/04/30 12:32:47;;;;;;;7.10;6.30;;;;;;;;;;5093072;28;20407;-70
2022/04/30 12:35:24;;;;;;;6.03;5.27;;;;;;;;;;5092982;28;20759;-70
2022/04/30 12:38:01;;;;;;;7.17;6.47;;;;;;;;;;5092987;28;20430;-69
2022/04/30 12:40:27;;;;;;;7.93;6.30;;;;;;;;;;5091862;28;20395;-64
2022/04/30 12:42:53;;;;;;;5.80;5.20;;;;;;;;;;5091922;28;20419;-66
2022/04/30 12:45:19;;;;;;;6.20;5.57;;;;;;;;;;5097036;28;20422;-69
2022/04/30 12:47:45;;;;;;;7.10;6.40;;;;;;;;;;5096899;28;20596;-71
2022/04/30 12:50:11;;;;;;;6.40;5.80;;;;;;;;;;5096914;28;20495;-71
2022/04/30 12:52:37;;;;;;;6.63;6.00;;;;;;;;;;5096748;28;20492;-68
2022/04/30 12:55:03;;;;;;;7.70;5.50;;;;;;;;;;5096964;28;20403;-70
2022/04/30 12:57:29;;;;;;;5.93;4.30;;;;;;;;;;5096597;28;20418;-69
2022/04/30 12:59:55;;;;;;;8.37;6.60;;;;;;;;;;5096802;28;20416;-72
2022/04/30 13:02:22;;;;;;;8.13;5.60;;;;;;;;;;5095328;28;20451;-71
2022/04/30 13:04:49;;;;;;;6.70;6.10;;;;;;;;;;5096633;28;20461;-71
2022/04/30 13:07:15;;;;;;;7.37;5.40;;;;;;;;;;5077170;28;20484;-70
2022/04/30 13:15:10;;;;;;;8.30;7.13;;;;;;;;;;5076285;28;20738;-68
2022/04/30 13:17:38;;;;;;;8.33;7.30;;;;;;;;;;5076118;28;20883;-71
2022/04/30 13:20:05;;;;;;;13.50;7.90;;;;;;;;;;5076038;28;20892;-68
2022/04/30 13:22:31;;;;;;;10.37;7.73;;;;;;;;;;5076172;28;20942;-70
2022/04/30 13:24:57;;;;;;;11.17;8.70;;;;;;;;;;5075956;28;20883;-68
2022/04/30 13:27:23;;;;;;;11.30;9.17;;;;;;;;;;5075922;28;20978;-71
2022/04/30 13:29:49;;;;;;;11.90;9.63;;;;;;;;;;5075990;28;20408;-71
2022/04/30 13:32:15;;;;;;;13.50;10.63;;;;;;;;;;5058100;28;20397;-69
2022/04/30 13:34:41;;;;;;;13.27;10.50;;;;;;;;;;5075797;28;20405;-71
2022/04/30 13:37:07;;;;;;;14.70;11.10;;;;;;;;;;5075535;28;20808;-69
2022/04/30 13:39:34;;;;;;;14.70;11.27;;;;;;;;;;5075670;28;20497;-70
2022/04/30 13:42:00;;;;;;;14.73;10.47;;;;;;;;;;5075720;28;20400;-70
2022/04/30 13:44:26;;;;;;;14.60;11.73;;;;;;;;;;5075610;28;20409;-69
2022/04/30 13:46:52;;;;;;;14.70;11.20;;;;;;;;;;5075378;28;20471;-70
2022/04/30 13:49:19;;;;;;;13.77;10.73;;;;;;;;;;5057547;28;20408;-70
2022/04/30 13:51:45;;;;;;;18.03;12.07;;;;;;;;;;5075617;28;20474;-71
2022/04/30 13:54:11;;;;;;;14.13;10.50;;;;;;;;;;5075470;28;20396;-69
2022/04/30 13:56:39;;;;;;;17.50;11.90;;;;;;;;;;5074655;28;20454;-68
2022/04/30 13:59:10;;;;;;;15.30;11.30;;;;;;;;;;5075329;28;20892;-66
2022/04/30 14:01:36;;;;;;;16.60;12.60;;;;;;;;;;5057355;28;20428;-68
2022/04/30 14:04:03;;;;;;;14.30;11.63;;;;;;;;;;5075028;28;20903;-69
2022/04/30 14:06:29;;;;;;;14.20;11.20;;;;;;;;;;5074782;28;20472;-68
2022/04/30 14:08:55;;;;;;;13.47;11.00;;;;;;;;;;5075213;28;20412;-69
2022/04/30 14:11:21;;;;;;;12.27;10.00;;;;;;;;;;5075108;28;20397;-71
2022/04/30 14:16:32;;;;;;;15.63;11.67;;;;;;;;;;5075125;28;20455;-69
2022/04/30 14:18:58;;;;;;;17.80;11.40;;;;;;;;;;5074975;28;20444;-70
2022/04/30 14:21:24;;;;;;;15.93;11.57;;;;;;;;;;5074846;28;20432;-71
2022/04/30 14:23:50;;;;;;;16.07;11.17;;;;;;;;;;5074924;28;20598;-70
2022/04/30 14:26:17;;;;;;;15.50;11.00;;;;;;;;;;5074675;28;20982;-68
2022/04/30 14:28:47;;;;;;;17.53;11.80;;;;;;;;;;5074813;28;20856;-70
2022/04/30 14:31:13;;;;;;;13.27;10.40;;;;;;;;;;5074783;28;20405;-65
2022/04/30 14:33:39;;;;;;;15.70;10.10;;;;;;;;;;5074462;28;20447;-70
2022/04/30 14:36:09;;;;;;;12.03;9.77;;;;;;;;;;5074417;28;20486;-64
2022/04/30 14:38:35;;;;;;;11.17;8.97;;;;;;;;;;5074757;28;20491;-69
2022/04/30 14:41:01;;;;;;;9.73;8.50;;;;;;;;;;5074557;28;20437;-69
2022/04/30 14:43:27;;;;;;;14.47;9.80;;;;;;;;;;5074409;28;20447;-68
2022/04/30 14:45:53;;;;;;;11.90;9.40;;;;;;;;;;5074033;28;20768;-68
2022/04/30 14:48:20;;;;;;;12.57;9.43;;;;;;;;;;5074073;28;20959;-70
2022/04/30 14:50:46;;;;;;;25.50;13.10;;;;;;;;;;5074025;28;20409;-69
2022/04/30 14:53:12;;;;;;;15.63;10.17;;;;;;;;;;5074140;28;20478;-69
2022/04/30 14:55:38;;;;;;;10.23;8.37;;;;;;;;;;5074000;28;20400;-70
2022/04/30 14:58:04;;;;;;;21.33;12.33;;;;;;;;;;5074215;28;20405;-68
2022/04/30 15:00:30;;;;;;;12.50;8.93;;;;;;;;;;5074160;28;20411;-65
2022/04/30 15:02:56;;;;;;;10.83;7.80;;;;;;;;;;5073912;28;20409;-69
2022/04/30 15:05:22;;;;;;;10.50;8.53;;;;;;;;;;5073767;28;20456;-70